Time;durP1;ratioP1;P1;durP2;ratioP2;P2;SDS_P1;SDS_P2;PMS_P1;PMS_P2;Temp;Humidity;BMP_temperature;BMP_pressure;BME280_temperature;BME280_humidity;BME280_pressure;Samples;Min_cycle;Max_cycle;Signal;HPM_P1;HPM_P2
2023/01/25 00:01:52;;;;;;;15.63;8.55;;;0.90;99.90;;;;;;5016360;28;20100;-64
2023/01/25 00:04:19;;;;;;;16.02;8.82;;;0.80;99.90;;;;;;5034079;28;20038;-64
2023/01/25 00:06:45;;;;;;;18.80;8.50;;;0.80;99.90;;;;;;5016206;28;20120;-65
2023/01/25 00:09:12;;;;;;;18.88;8.63;;;0.80;99.90;;;;;;4999883;28;20124;-64
2023/01/25 00:11:37;;;;;;;20.17;9.57;;;0.80;99.90;;;;;;5016154;28;20057;-64
2023/01/25 00:14:04;;;;;;;21.30;9.65;;;0.80;99.90;;;;;;5034217;28;20047;-64
2023/01/25 00:16:30;;;;;;;19.45;8.85;;;0.80;99.90;;;;;;5016455;28;20087;-64
2023/01/25 00:18:55;;;;;;;18.90;8.45;;;0.70;99.90;;;;;;5033828;28;20077;-64
2023/01/25 00:21:23;;;;;;;18.30;9.10;;;0.80;99.90;;;;;;5016012;28;20521;-65
2023/01/25 00:23:48;;;;;;;16.73;7.70;;;0.80;99.90;;;;;;5016191;28;20041;-65
2023/01/25 00:26:15;;;;;;;22.35;9.63;;;0.80;99.90;;;;;;5033911;28;20056;-64
2023/01/25 00:28:41;;;;;;;16.00;9.15;;;0.80;99.90;;;;;;5033239;28;20374;-64
2023/01/25 00:31:08;;;;;;;17.20;8.60;;;0.80;99.90;;;;;;5033884;28;20095;-63
2023/01/25 00:33:37;;;;;;;19.35;8.45;;;0.80;99.90;;;;;;5033785;28;20116;-64
2023/01/25 00:36:38;;;;;;;15.80;8.77;;;0.80;99.90;;;;;;4999421;28;20475;-64
2023/01/25 00:39:11;;;;;;;22.27;10.57;;;0.80;99.90;;;;;;4991997;28;20088;-64
2023/01/25 00:41:37;;;;;;;17.98;8.88;;;0.80;99.90;;;;;;5016086;28;20041;-65
2023/01/25 00:44:02;;;;;;;16.25;8.50;;;0.70;99.90;;;;;;5015669;28;20079;-67
2023/01/25 00:46:28;;;;;;;19.08;9.73;;;0.60;99.90;;;;;;5033648;28;20046;-67
2023/01/25 00:48:54;;;;;;;18.88;9.27;;;0.60;99.90;;;;;;5015874;28;20052;-67
2023/01/25 00:51:20;;;;;;;17.40;9.40;;;0.60;99.90;;;;;;5015794;28;20041;-67
2023/01/25 00:53:46;;;;;;;18.00;9.18;;;0.60;99.90;;;;;;5033394;28;20091;-67
2023/01/25 00:56:12;;;;;;;18.13;9.02;;;0.60;99.90;;;;;;5033453;28;20116;-66
2023/01/25 00:58:37;;;;;;;16.70;8.70;;;0.60;99.90;;;;;;5033417;28;20520;-66
2023/01/25 01:01:03;;;;;;;24.67;9.27;;;0.60;99.90;;;;;;5033331;28;20488;-67
2023/01/25 01:03:28;;;;;;;16.88;8.70;;;0.60;99.90;;;;;;5033247;28;20055;-67
2023/01/25 01:06:09;;;;;;;20.08;8.30;;;0.60;99.90;;;;;;5015399;28;20509;-67
2023/01/25 01:08:38;;;;;;;17.48;9.50;;;0.60;99.90;;;;;;5015413;28;20058;-67
2023/01/25 01:11:06;;;;;;;18.13;9.00;;;0.60;99.90;;;;;;5015222;28;20073;-67
2023/01/25 01:13:33;;;;;;;18.77;8.90;;;0.60;99.90;;;;;;5015044;28;20047;-67
2023/01/25 01:16:05;;;;;;;20.77;9.82;;;0.50;99.90;;;;;;5015142;28;20397;-67
2023/01/25 01:18:35;;;;;;;22.77;9.27;;;0.50;99.90;;;;;;5033092;28;20055;-67
2023/01/25 01:21:00;;;;;;;18.63;9.02;;;1.40;99.90;;;;;;5033082;28;20025;-67
2023/01/25 01:23:27;;;;;;;16.92;8.45;;;0.50;99.90;;;;;;5033026;28;20041;-67
2023/01/25 01:25:53;;;;;;;19.02;8.10;;;0.50;99.90;;;;;;5033014;28;20099;-66
2023/01/25 01:28:19;;;;;;;19.65;9.15;;;0.40;99.90;;;;;;5032703;28;20045;-67
2023/01/25 01:30:44;;;;;;;15.32;7.78;;;0.40;99.90;;;;;;5015273;28;20485;-66
2023/01/25 01:33:10;;;;;;;18.58;8.60;;;0.40;99.90;;;;;;5032639;28;20124;-67
2023/01/25 01:35:36;;;;;;;16.67;7.38;;;0.40;99.90;;;;;;5032938;28;20038;-67
2023/01/25 01:38:01;;;;;;;20.95;9.35;;;0.50;99.90;;;;;;5032506;28;20397;-66
2023/01/25 01:40:27;;;;;;;20.88;9.63;;;0.40;99.90;;;;;;5036459;28;20080;-67
2023/01/25 01:43:00;;;;;;;23.02;9.02;;;0.30;99.90;;;;;;5018965;28;20052;-66
2023/01/25 01:46:02;;;;;;;24.08;9.38;;;0.30;99.90;;;;;;5036647;28;20044;-67
2023/01/25 01:48:45;;;;;;;18.52;8.40;;;0.30;99.90;;;;;;4959546;28;20057;-66
2023/01/25 01:51:13;;;;;;;20.58;8.85;;;0.30;99.90;;;;;;5014434;28;20493;-67
2023/01/25 01:53:45;;;;;;;17.35;9.70;;;0.30;99.90;;;;;;5018688;28;20045;-67
2023/01/25 01:56:12;;;;;;;;;;;0.30;99.90;;;;;;5037173;28;20026;-67
2023/01/25 01:58:39;;;;;;;17.50;9.35;;;0.30;99.90;;;;;;5019019;28;20008;-67
2023/01/25 02:01:05;;;;;;;17.67;8.30;;;0.30;99.90;;;;;;5036394;28;20091;-67
2023/01/25 02:03:31;;;;;;;22.85;8.15;;;0.40;99.90;;;;;;5018662;28;20049;-67
2023/01/25 02:06:07;;;;;;;15.73;8.80;;;0.30;99.90;;;;;;5036532;28;20118;-67
2023/01/25 02:08:35;;;;;;;24.33;9.00;;;0.30;99.90;;;;;;5036348;28;20054;-67
2023/01/25 02:11:03;;;;;;;17.90;8.52;;;0.30;99.90;;;;;;5018748;28;20079;-67
2023/01/25 02:13:30;;;;;;;25.25;9.48;;;0.30;99.90;;;;;;5002357;28;20052;-67
2023/01/25 02:15:56;;;;;;;22.52;9.90;;;1.00;99.90;;;;;;5018694;28;20049;-67
2023/01/25 02:18:22;;;;;;;19.17;9.80;;;0.30;99.90;;;;;;5036118;28;20079;-67
2023/01/25 02:20:51;;;;;;;19.42;9.32;;;0.30;99.90;;;;;;5018270;28;20081;-67
2023/01/25 02:23:35;;;;;;;22.42;10.13;;;0.30;99.90;;;;;;5035908;28;20041;-67
2023/01/25 02:26:04;;;;;;;20.40;10.07;;;0.30;99.90;;;;;;5036058;28;20059;-67
2023/01/25 02:28:37;;;;;;;23.58;10.27;;;0.30;99.90;;;;;;5018159;28;20034;-68
2023/01/25 02:31:02;;;;;;;24.02;10.43;;;0.30;99.90;;;;;;5036093;28;20121;-67
2023/01/25 02:33:28;;;;;;;18.42;9.05;;;0.30;99.90;;;;;;5036073;28;20541;-67
2023/01/25 02:36:00;;;;;;;18.63;9.38;;;0.30;99.90;;;;;;5036116;28;20029;-67
2023/01/25 02:38:28;;;;;;;24.00;9.95;;;0.30;99.90;;;;;;5035986;28;20077;-67
2023/01/25 02:40:59;;;;;;;17.35;8.75;;;0.40;99.90;;;;;;5018150;28;20496;-67
2023/01/25 02:43:29;;;;;;;20.90;10.82;;;0.20;99.90;;;;;;5017933;28;20041;-67
2023/01/25 02:46:09;;;;;;;23.63;10.97;;;0.20;99.90;;;;;;5035584;28;20033;-67
2023/01/25 02:48:35;;;;;;;21.33;9.02;;;0.20;99.90;;;;;;5035557;28;20278;-67
2023/01/25 02:51:01;;;;;;;21.50;11.63;;;0.10;99.90;;;;;;5017330;28;20037;-66
2023/01/25 02:53:27;;;;;;;23.20;10.75;;;0.10;99.90;;;;;;5035710;28;20046;-66
2023/01/25 02:55:53;;;;;;;25.00;11.70;;;0.10;99.90;;;;;;5017984;28;20114;-67
2023/01/25 02:58:18;;;;;;;22.33;10.93;;;0.10;99.90;;;;;;5017899;28;20156;-67
2023/01/25 03:00:44;;;;;;;20.33;10.23;;;0.00;99.90;;;;;;5035621;28;20037;-67
2023/01/25 03:03:09;;;;;;;26.65;12.25;;;0.00;99.90;;;;;;5035538;28;20438;-67
2023/01/25 03:05:35;;;;;;;19.30;9.38;;;0.00;99.90;;;;;;5035556;28;20037;-65
2023/01/25 03:08:00;;;;;;;22.02;10.43;;;0.10;99.90;;;;;;5035220;28;20073;-66
2023/01/25 03:10:26;;;;;;;22.35;10.20;;;0.00;99.90;;;;;;5035415;28;20046;-66
2023/01/25 03:12:53;;;;;;;21.67;11.00;;;0.00;99.90;;;;;;5035011;28;20041;-66
2023/01/25 03:15:18;;;;;;;22.42;10.65;;;0.00;99.90;;;;;;5035019;28;20044;-67
2023/01/25 03:17:44;;;;;;;21.05;10.43;;;0.00;99.90;;;;;;5035347;28;20037;-66
2023/01/25 03:20:10;;;;;;;22.45;10.27;;;0.00;99.90;;;;;;5035228;28;20044;-66
2023/01/25 03:22:36;;;;;;;22.48;10.82;;;0.00;99.90;;;;;;5035156;28;20413;-67
2023/01/25 03:25:01;;;;;;;20.83;10.10;;;0.10;99.90;;;;;;5017133;28;20044;-67
2023/01/25 03:27:29;;;;;;;28.25;11.15;;;0.00;99.90;;;;;;5035111;28;20539;-67
2023/01/25 03:29:55;;;;;;;28.77;12.73;;;0.00;99.90;;;;;;5035084;28;20045;-67
2023/01/25 03:32:21;;;;;;;27.13;12.45;;;0.00;99.90;;;;;;5035044;28;20033;-67
2023/01/25 03:34:47;;;;;;;23.02;10.52;;;0.00;99.90;;;;;;5034710;28;20030;-67
2023/01/25 03:37:12;;;;;;;20.95;10.85;;;0.00;99.90;;;;;;5017113;28;20049;-67
2023/01/25 03:39:38;;;;;;;33.60;12.95;;;0.00;99.90;;;;;;5034918;28;20033;-67
2023/01/25 03:42:04;;;;;;;22.85;11.80;;;0.60;99.90;;;;;;5034866;28;20049;-67
2023/01/25 03:44:29;;;;;;;21.95;10.93;;;0.00;99.90;;;;;;5017039;28;20551;-67
2023/01/25 03:46:55;;;;;;;29.50;12.75;;;0.00;99.90;;;;;;5016635;28;20068;-67
2023/01/25 03:49:20;;;;;;;25.38;12.13;;;0.00;99.90;;;;;;5034721;28;20033;-67
2023/01/25 03:51:46;;;;;;;27.33;12.07;;;0.00;99.90;;;;;;5034659;28;20040;-67
2023/01/25 03:54:12;;;;;;;35.60;13.73;;;0.00;99.90;;;;;;5034422;28;20124;-67
2023/01/25 03:56:37;;;;;;;25.92;12.30;;;0.00;99.90;;;;;;5034525;28;20421;-67
2023/01/25 03:59:03;;;;;;;24.95;12.85;;;0.00;99.90;;;;;;5016777;28;20151;-67
2023/01/25 04:01:29;;;;;;;25.10;11.27;;;0.00;99.90;;;;;;5034464;28;20033;-66
2023/01/25 04:03:54;;;;;;;26.55;11.70;;;0.00;99.90;;;;;;5033120;28;20484;-67
2023/01/25 04:06:23;;;;;;;25.70;12.73;;;0.00;99.90;;;;;;4999946;28;20077;-67
2023/01/25 04:09:07;;;;;;;30.90;13.00;;;0.00;99.90;;;;;;5033762;28;20084;-67
2023/01/25 04:18:16;;;;;;;25.17;13.02;;;0.00;99.90;;;;;;5034108;28;20053;-66
2023/01/25 04:24:04;;;;;;;31.92;13.55;;;-0.10;99.90;;;;;;5033793;28;20103;-66
2023/01/25 04:26:30;;;;;;;23.48;12.18;;;-0.10;99.90;;;;;;5015926;28;20034;-67
2023/01/25 04:28:55;;;;;;;33.00;13.20;;;-0.10;99.90;;;;;;5033682;28;20088;-67
2023/01/25 04:31:21;;;;;;;30.48;13.25;;;-0.10;99.90;;;;;;5033844;28;20037;-67
2023/01/25 04:33:46;;;;;;;29.90;14.25;;;-0.10;99.90;;;;;;5015913;28;20045;-67
2023/01/25 04:36:12;;;;;;;30.20;12.60;;;-0.20;99.90;;;;;;5033839;28;20037;-64
2023/01/25 04:38:38;;;;;;;28.35;13.90;;;-0.10;99.90;;;;;;5033620;28;20397;-64
2023/01/25 04:41:04;;;;;;;23.75;11.75;;;-0.20;99.90;;;;;;5015800;28;20117;-64
2023/01/25 04:43:29;;;;;;;25.27;11.85;;;-0.20;99.90;;;;;;5015543;28;20087;-63
2023/01/25 04:45:55;;;;;;;30.80;10.80;;;-0.10;99.90;;;;;;5033556;28;20064;-64
2023/01/25 04:48:20;;;;;;;32.88;12.27;;;-0.10;99.90;;;;;;5015606;28;20489;-64
2023/01/25 04:50:46;;;;;;;28.20;12.07;;;-0.20;99.90;;;;;;5033546;28;20120;-63
2023/01/25 04:53:12;;;;;;;31.67;13.23;;;-0.20;99.90;;;;;;5033450;28;20041;-64
2023/01/25 04:55:38;;;;;;;28.77;12.77;;;-0.10;99.90;;;;;;4999057;28;20064;-63
2023/01/25 04:58:04;;;;;;;23.13;11.13;;;-0.10;99.90;;;;;;5015541;28;20496;-64
2023/01/25 05:00:31;;;;;;;27.45;13.65;;;-0.10;99.90;;;;;;5033429;28;20041;-65
2023/01/25 05:02:56;;;;;;;31.35;12.63;;;-0.10;99.90;;;;;;5033323;28;20124;-65
2023/01/25 05:05:22;;;;;;;26.70;12.65;;;-0.10;99.90;;;;;;5033095;28;20477;-65
2023/01/25 05:07:48;;;;;;;29.00;12.25;;;-0.10;99.90;;;;;;5032866;28;20049;-65
2023/01/25 05:10:13;;;;;;;26.00;12.55;;;-0.10;99.90;;;;;;5032932;28;20124;-65
2023/01/25 05:12:40;;;;;;;25.65;12.18;;;-0.10;99.90;;;;;;5015252;28;20041;-65
2023/01/25 05:15:06;;;;;;;29.08;12.48;;;-0.10;99.90;;;;;;5015043;28;20042;-65
2023/01/25 05:17:32;;;;;;;29.17;12.57;;;-0.20;99.90;;;;;;5015199;28;20095;-64
2023/01/25 05:19:57;;;;;;;28.35;12.82;;;-0.10;99.90;;;;;;5033029;28;20049;-65
2023/01/25 05:22:23;;;;;;;26.02;12.82;;;-0.10;99.90;;;;;;5033023;28;20124;-65
2023/01/25 05:24:48;;;;;;;24.58;12.20;;;-0.10;99.90;;;;;;5032981;28;20046;-65
2023/01/25 05:27:17;;;;;;;24.30;12.43;;;-0.20;99.90;;;;;;5033002;28;20469;-65
2023/01/25 05:29:44;;;;;;;25.63;11.43;;;-0.20;99.90;;;;;;5033051;28;20048;-65
2023/01/25 05:32:13;;;;;;;22.75;11.48;;;-0.20;99.90;;;;;;5033003;28;20076;-65
2023/01/25 05:34:40;;;;;;;23.70;12.38;;;-0.20;99.90;;;;;;5015259;28;20125;-65
2023/01/25 05:37:07;;;;;;;25.90;12.35;;;-0.20;99.90;;;;;;5032910;28;20037;-65
2023/01/25 05:39:33;;;;;;;34.28;13.70;;;-0.20;99.90;;;;;;5032687;28;20045;-65
2023/01/25 05:41:58;;;;;;;27.42;12.20;;;-0.20;99.90;;;;;;5032844;28;20038;-65
2023/01/25 05:44:24;;;;;;;25.45;12.10;;;-0.20;99.90;;;;;;5032869;28;20091;-65
2023/01/25 05:46:50;;;;;;;24.67;11.32;;;-0.20;99.90;;;;;;5014770;28;20041;-67
2023/01/25 05:49:16;;;;;;;24.95;11.88;;;-0.20;99.90;;;;;;5032557;28;20121;-65
2023/01/25 05:51:42;;;;;;;27.45;12.75;;;-0.20;99.90;;;;;;5015123;28;20056;-65
2023/01/25 05:54:11;;;;;;;26.98;12.50;;;-0.20;99.90;;;;;;5032772;28;20041;-65
2023/01/25 05:56:37;;;;;;;26.42;11.32;;;-0.20;99.90;;;;;;5015085;28;20049;-65
2023/01/25 05:59:03;;;;;;;28.92;11.38;;;-0.20;99.90;;;;;;5032726;28;20040;-66
2023/01/25 06:01:28;;;;;;;30.73;13.52;;;-0.20;99.90;;;;;;5032542;28;20539;-66
2023/01/25 06:03:54;;;;;;;25.60;13.10;;;-0.20;99.90;;;;;;5032475;28;20046;-65
2023/01/25 06:06:20;;;;;;;30.23;11.90;;;-0.10;99.90;;;;;;5032480;28;20536;-65
2023/01/25 06:08:49;;;;;;;32.67;13.07;;;-0.20;99.90;;;;;;5015343;28;20041;-65
2023/01/25 06:11:18;;;;;;;23.80;12.77;;;-0.10;99.90;;;;;;5032119;28;20060;-65
2023/01/25 06:13:45;;;;;;;26.17;12.43;;;-0.10;99.90;;;;;;5014841;28;20038;-66
2023/01/25 06:16:10;;;;;;;25.17;11.82;;;0.30;99.90;;;;;;5032501;28;20068;-65
2023/01/25 06:18:36;;;;;;;29.63;13.05;;;-0.10;99.90;;;;;;5014838;28;20077;-65
2023/01/25 06:21:03;;;;;;;26.85;11.85;;;-0.10;99.90;;;;;;5032216;28;20087;-67
2023/01/25 06:23:29;;;;;;;25.27;12.32;;;-0.20;99.90;;;;;;5032462;28;20044;-65
2023/01/25 06:25:59;;;;;;;25.70;11.63;;;-0.10;99.90;;;;;;5015690;28;20034;-64
2023/01/25 06:28:25;;;;;;;31.97;12.60;;;-0.20;99.90;;;;;;5036188;28;20481;-66
2023/01/25 06:30:50;;;;;;;25.63;11.82;;;-0.20;99.90;;;;;;5036139;28;20360;-66
2023/01/25 06:33:16;;;;;;;23.05;11.35;;;-0.20;99.90;;;;;;5018105;28;20507;-65
2023/01/25 06:35:42;;;;;;;26.83;11.90;;;-0.20;99.90;;;;;;5018055;28;20034;-64
2023/01/25 06:38:08;;;;;;;22.33;11.50;;;-0.20;99.90;;;;;;5035979;28;20451;-65
2023/01/25 06:40:33;;;;;;;24.75;10.25;;;-0.30;99.90;;;;;;5036000;28;20509;-65
2023/01/25 06:43:10;;;;;;;23.80;10.65;;;-0.20;99.90;;;;;;5035855;28;20048;-65
2023/01/25 06:45:36;;;;;;;22.83;9.32;;;-0.20;99.90;;;;;;5035905;28;20045;-64
2023/01/25 06:48:01;;;;;;;25.35;10.95;;;-0.20;99.90;;;;;;5035750;28;20064;-64
2023/01/25 06:50:27;;;;;;;23.95;10.98;;;-0.20;99.90;;;;;;5035831;28;20112;-66
2023/01/25 06:52:54;;;;;;;28.30;11.68;;;-0.20;99.90;;;;;;5035776;28;20044;-66
2023/01/25 06:55:20;;;;;;;19.40;9.85;;;-0.20;99.90;;;;;;5035678;28;20120;-65
2023/01/25 06:57:46;;;;;;;22.58;10.15;;;-0.20;99.90;;;;;;5035347;28;20531;-65
2023/01/25 07:00:12;;;;;;;27.85;10.18;;;-0.20;99.90;;;;;;5035594;28;20045;-67
2023/01/25 07:02:38;;;;;;;24.80;9.57;;;-0.20;99.90;;;;;;5017689;28;20041;-64
2023/01/25 07:05:04;;;;;;;23.58;10.80;;;-0.20;99.90;;;;;;5035550;28;20076;-65
2023/01/25 07:07:29;;;;;;;21.17;10.80;;;-0.20;99.90;;;;;;5017301;28;20088;-66
2023/01/25 07:09:55;;;;;;;22.42;11.43;;;-0.20;99.90;;;;;;5000894;28;20084;-66
2023/01/25 07:12:21;;;;;;;20.55;10.50;;;-0.10;99.90;;;;;;5035365;28;20045;-65
2023/01/25 07:14:48;;;;;;;20.73;10.73;;;-0.20;99.90;;;;;;5017305;28;20512;-66
2023/01/25 07:17:14;;;;;;;24.90;11.57;;;-0.20;99.90;;;;;;5035029;28;20091;-66
2023/01/25 07:19:40;;;;;;;24.90;9.75;;;-0.20;99.90;;;;;;5017596;28;20049;-66
2023/01/25 07:22:05;;;;;;;19.40;10.30;;;-0.20;99.90;;;;;;5035235;28;20037;-67
2023/01/25 07:24:31;;;;;;;28.63;10.95;;;-0.30;99.90;;;;;;5035232;28;20048;-66
2023/01/25 07:26:57;;;;;;;20.30;10.25;;;-0.30;99.90;;;;;;5017040;28;20088;-66
2023/01/25 07:29:22;;;;;;;19.33;10.30;;;-0.20;99.90;;;;;;5035179;28;20033;-66
2023/01/25 07:31:48;;;;;;;24.27;11.20;;;-0.30;99.90;;;;;;5017200;28;20029;-67
2023/01/25 07:34:13;;;;;;;26.63;10.30;;;-0.30;99.90;;;;;;5017202;28;20076;-66
2023/01/25 07:36:40;;;;;;;24.27;10.40;;;-0.30;99.90;;;;;;5034803;28;20041;-66
2023/01/25 07:39:09;;;;;;;23.65;10.60;;;-0.30;99.90;;;;;;5017069;28;20513;-66
2023/01/25 07:41:34;;;;;;;23.40;9.63;;;-0.20;99.90;;;;;;5034955;28;20116;-66
2023/01/25 07:44:00;;;;;;;23.58;10.43;;;-0.20;99.90;;;;;;5034762;28;20113;-66
2023/01/25 07:46:26;;;;;;;23.50;10.38;;;-0.20;99.90;;;;;;5034497;28;20111;-66
2023/01/25 07:48:52;;;;;;;26.98;11.68;;;-0.20;99.90;;;;;;5034687;28;20041;-66
2023/01/25 07:51:23;;;;;;;24.88;10.85;;;-0.10;99.90;;;;;;5034303;28;20072;-66
2023/01/25 07:53:50;;;;;;;22.35;9.35;;;-0.10;99.90;;;;;;5034196;28;20041;-66
2023/01/25 07:56:16;;;;;;;28.15;11.02;;;-0.10;99.90;;;;;;5034504;28;20037;-66
2023/01/25 07:58:41;;;;;;;21.30;11.20;;;-0.20;99.90;;;;;;5034565;28;20113;-66
2023/01/25 08:01:08;;;;;;;24.02;11.95;;;-0.20;99.90;;;;;;5034487;28;20057;-66
2023/01/25 08:03:34;;;;;;;25.33;10.95;;;-0.20;99.90;;;;;;5016665;28;20068;-66
2023/01/25 08:06:00;;;;;;;31.55;10.88;;;-0.20;99.90;;;;;;5034040;28;20038;-66
2023/01/25 08:08:26;;;;;;;27.42;11.13;;;-0.20;99.90;;;;;;5033996;28;20053;-65
2023/01/25 08:10:51;;;;;;;29.20;13.07;;;-0.30;99.90;;;;;;5016050;28;20085;-66
2023/01/25 08:13:17;;;;;;;27.20;10.45;;;-0.20;99.90;;;;;;5016249;28;20452;-66
2023/01/25 08:15:42;;;;;;;28.63;11.70;;;-0.30;99.90;;;;;;5016238;28;20047;-65
2023/01/25 08:18:08;;;;;;;19.13;7.93;;;-0.20;99.90;;;;;;5016216;28;20511;-66
2023/01/25 08:20:34;;;;;;;24.65;10.43;;;-0.20;99.90;;;;;;5033857;28;20077;-66
2023/01/25 08:22:59;;;;;;;19.38;9.05;;;-0.20;99.90;;;;;;5034012;28;20033;-65
2023/01/25 08:25:25;;;;;;;25.15;10.82;;;-0.20;99.90;;;;;;5033950;28;20113;-66
2023/01/25 08:27:52;;;;;;;25.73;10.05;;;-0.30;99.90;;;;;;4999498;28;20531;-65
2023/01/25 08:30:18;;;;;;;22.08;10.38;;;-0.30;99.90;;;;;;5033977;28;20099;-66
2023/01/25 08:32:43;;;;;;;25.00;10.02;;;-0.30;99.90;;;;;;5033572;28;20436;-66
2023/01/25 08:35:09;;;;;;;24.23;11.02;;;-0.30;99.90;;;;;;5033794;28;20037;-66
2023/01/25 08:37:34;;;;;;;23.38;11.23;;;-0.30;99.90;;;;;;5033849;28;20037;-66
2023/01/25 08:40:00;;;;;;;20.30;10.27;;;-0.30;99.90;;;;;;5033717;28;20041;-66
2023/01/25 08:42:26;;;;;;;26.08;11.13;;;-0.30;99.90;;;;;;5033652;28;20128;-66
2023/01/25 08:44:51;;;;;;;30.23;11.35;;;-0.30;99.90;;;;;;5015878;28;20045;-66
2023/01/25 08:47:17;;;;;;;25.25;11.65;;;-0.30;99.90;;;;;;5033215;28;20145;-66
2023/01/25 08:49:42;;;;;;;26.58;12.38;;;-0.30;99.90;;;;;;5033076;28;20033;-66
2023/01/25 08:52:08;;;;;;;23.15;10.75;;;-0.30;99.90;;;;;;5015501;28;20048;-66
2023/01/25 08:54:34;;;;;;;26.67;11.60;;;-0.30;99.90;;;;;;5033544;28;20489;-66
2023/01/25 08:57:00;;;;;;;26.48;11.43;;;-0.30;99.90;;;;;;5033365;28;20045;-66
2023/01/25 08:59:26;;;;;;;22.20;10.05;;;-0.30;99.90;;;;;;5033168;28;20033;-66
2023/01/25 09:01:51;;;;;;;31.50;12.13;;;-0.30;99.90;;;;;;5015466;28;20052;-66
2023/01/25 09:04:17;;;;;;;25.25;10.82;;;-0.30;99.90;;;;;;5033400;28;20401;-66
2023/01/25 09:06:43;;;;;;;25.38;10.45;;;-0.30;99.90;;;;;;5033283;28;20473;-66
2023/01/25 09:09:10;;;;;;;19.65;9.82;;;-0.30;99.90;;;;;;5015196;28;20049;-66
2023/01/25 09:11:36;;;;;;;24.73;11.70;;;-0.30;99.90;;;;;;5032856;28;20120;-66
2023/01/25 09:14:02;;;;;;;22.92;10.38;;;-0.20;99.90;;;;;;5033212;28;20045;-66
2023/01/25 09:16:28;;;;;;;21.00;8.88;;;-0.30;99.90;;;;;;5032863;28;20544;-66
2023/01/25 09:18:56;;;;;;;23.83;9.23;;;-0.20;99.90;;;;;;5015379;28;20052;-66
2023/01/25 09:21:22;;;;;;;24.88;10.48;;;-0.20;99.90;;;;;;4998822;28;20034;-66
2023/01/25 09:23:49;;;;;;;19.13;9.45;;;-0.30;99.90;;;;;;5033046;28;20041;-66
2023/01/25 09:26:15;;;;;;;25.40;9.88;;;-0.30;99.90;;;;;;5015022;28;20069;-66
2023/01/25 09:28:42;;;;;;;27.88;10.70;;;-0.20;99.90;;;;;;5033063;28;20092;-65
2023/01/25 09:31:10;;;;;;;23.92;10.38;;;-0.20;99.90;;;;;;5032703;28;20095;-66
2023/01/25 09:33:37;;;;;;;22.55;9.85;;;-0.20;99.90;;;;;;5015383;28;20038;-65
2023/01/25 09:36:03;;;;;;;24.23;11.45;;;-0.20;99.90;;;;;;5032817;28;20494;-66
2023/01/25 09:38:29;;;;;;;22.73;10.88;;;-0.10;99.90;;;;;;5014960;28;20068;-66
2023/01/25 09:41:03;;;;;;;23.17;10.40;;;-0.10;99.90;;;;;;5032840;28;20101;-66
2023/01/25 09:43:44;;;;;;;26.48;10.30;;;-0.10;99.90;;;;;;5032547;28;20041;-65
2023/01/25 09:46:28;;;;;;;22.67;10.80;;;-0.10;99.90;;;;;;5032798;28;20041;-65
2023/01/25 09:49:16;;;;;;;24.73;11.45;;;-0.10;99.90;;;;;;5032729;28;20060;-66
2023/01/25 09:51:58;;;;;;;23.42;10.50;;;-0.10;99.90;;;;;;5015079;28;20037;-65
2023/01/25 09:54:27;;;;;;;21.10;10.18;;;-0.10;99.90;;;;;;5032660;28;20041;-65
2023/01/25 09:56:53;;;;;;;26.95;10.63;;;-0.10;99.90;;;;;;5032624;28;20042;-65
2023/01/25 09:59:22;;;;;;;26.88;11.38;;;-0.10;99.90;;;;;;5015136;28;20045;-65
2023/01/25 10:02:03;;;;;;;25.70;11.95;;;-0.10;99.90;;;;;;5034976;28;20174;-66
2023/01/25 10:04:40;;;;;;;22.98;11.32;;;0.00;99.90;;;;;;5018923;28;20152;-64
2023/01/25 10:07:20;;;;;;;20.15;9.43;;;-0.10;99.90;;;;;;5036513;28;20425;-66
2023/01/25 10:10:00;;;;;;;27.92;10.52;;;0.00;99.90;;;;;;5036145;28;20069;-65
2023/01/25 10:12:30;;;;;;;25.70;11.55;;;0.00;99.90;;;;;;5036491;28;20397;-65
2023/01/25 10:14:55;;;;;;;28.10;11.15;;;0.00;99.90;;;;;;5036476;28;20498;-66
2023/01/25 10:17:39;;;;;;;29.60;12.55;;;0.00;99.90;;;;;;5036064;28;20042;-66
2023/01/25 10:20:34;;;;;;;27.65;12.68;;;-0.10;99.90;;;;;;5018310;28;20455;-66
2023/01/25 10:23:38;;;;;;;20.25;9.43;;;0.00;99.90;;;;;;5036228;28;20052;-65
2023/01/25 10:26:25;;;;;;;25.17;10.40;;;0.00;99.90;;;;;;5036186;28;20037;-66
2023/01/25 10:29:11;;;;;;;23.63;10.20;;;-0.10;99.90;;;;;;5019784;28;20141;-66
2023/01/25 10:31:49;;;;;;;24.60;10.48;;;-0.10;99.90;;;;;;5035957;28;20709;-66
2023/01/25 10:34:28;;;;;;;24.58;9.95;;;-0.10;99.90;;;;;;5018432;28;20052;-69
2023/01/25 10:37:01;;;;;;;25.45;10.20;;;-0.20;99.90;;;;;;5036073;28;20087;-68
2023/01/25 10:39:29;;;;;;;24.48;9.50;;;-0.10;99.90;;;;;;5036086;28;20122;-69
2023/01/25 10:42:03;;;;;;;21.98;9.73;;;-0.10;99.90;;;;;;5036008;28;20045;-68
2023/01/25 10:44:30;;;;;;;18.48;9.50;;;-0.20;99.90;;;;;;5035697;28;20048;-69
2023/01/25 10:47:06;;;;;;;26.52;10.27;;;-0.20;99.90;;;;;;5017774;28;20046;-69
2023/01/25 10:49:50;;;;;;;22.38;10.43;;;-0.20;99.90;;;;;;5035561;28;20147;-68
2023/01/25 10:52:29;;;;;;;31.13;10.48;;;-0.30;99.90;;;;;;5035804;28;20045;-69
2023/01/25 10:55:14;;;;;;;20.10;9.48;;;-0.30;99.90;;;;;;5035523;28;20492;-69
2023/01/25 10:57:54;;;;;;;20.10;9.32;;;-0.20;99.90;;;;;;5017567;28;20124;-70
2023/01/25 11:00:29;;;;;;;26.52;10.57;;;-0.30;99.90;;;;;;5035298;28;20056;-70
2023/01/25 11:02:54;;;;;;;21.65;8.85;;;-0.30;99.90;;;;;;5017524;28;20488;-66
2023/01/25 11:05:35;;;;;;;22.73;9.68;;;-0.20;99.90;;;;;;5035609;28;20037;-66
2023/01/25 11:08:24;;;;;;;21.50;8.67;;;-0.20;99.90;;;;;;5035403;28;20461;-66
2023/01/25 11:10:50;;;;;;;23.15;9.95;;;-0.10;99.90;;;;;;5035170;28;20284;-66
2023/01/25 11:13:15;;;;;;;24.20;11.85;;;-0.10;99.90;;;;;;5034706;28;20054;-66
2023/01/25 11:15:47;;;;;;;29.73;12.85;;;-0.10;99.90;;;;;;5035432;28;20046;-66
2023/01/25 11:18:24;;;;;;;23.73;10.15;;;-0.10;99.90;;;;;;5017365;28;20046;-66
2023/01/25 11:21:18;;;;;;;25.23;10.13;;;0.00;99.90;;;;;;5035218;28;20037;-66
2023/01/25 11:24:23;;;;;;;23.58;9.93;;;0.00;99.90;;;;;;5031527;28;20477;-66
2023/01/25 11:26:48;;;;;;;30.73;10.45;;;0.00;99.90;;;;;;5013965;28;20103;-66
2023/01/25 11:29:21;;;;;;;22.50;9.63;;;0.00;99.90;;;;;;5034862;28;20428;-66
2023/01/25 11:31:53;;;;;;;24.17;9.65;;;0.00;99.90;;;;;;5035159;28;20520;-66
2023/01/25 11:34:23;;;;;;;18.63;8.85;;;0.00;99.90;;;;;;5035050;28;20449;-65
2023/01/25 11:37:51;;;;;;;19.67;9.75;;;0.00;99.90;;;;;;5034685;28;20041;-66
2023/01/25 11:40:27;;;;;;;28.42;11.80;;;0.00;99.90;;;;;;4973826;28;20153;-66
2023/01/25 11:43:30;;;;;;;24.92;9.90;;;0.00;99.90;;;;;;4973705;28;20052;-66
2023/01/25 11:46:34;;;;;;;20.50;8.73;;;0.00;99.90;;;;;;5031597;28;20429;-66
2023/01/25 11:49:17;;;;;;;17.92;8.82;;;0.00;99.90;;;;;;5024809;28;20097;-66
2023/01/25 11:52:05;;;;;;;19.83;9.10;;;0.00;99.90;;;;;;5034754;28;20041;-66
2023/01/25 11:54:42;;;;;;;26.02;9.63;;;-0.10;99.90;;;;;;5016606;28;20053;-65
2023/01/25 11:57:17;;;;;;;22.50;9.57;;;-0.10;99.90;;;;;;5034560;28;20045;-63
2023/01/25 12:00:09;;;;;;;20.98;8.52;;;-0.10;99.90;;;;;;5034534;28;20037;-66
2023/01/25 12:02:52;;;;;;;26.33;9.45;;;-0.10;99.90;;;;;;5034519;28;20029;-66
2023/01/25 12:05:46;;;;;;;24.23;10.38;;;0.00;99.90;;;;;;5034416;28;20084;-66
2023/01/25 12:08:21;;;;;;;17.92;7.30;;;0.00;99.90;;;;;;5016272;28;20088;-66
2023/01/25 12:11:11;;;;;;;21.90;9.18;;;-0.10;99.90;;;;;;5016329;28;20136;-66
2023/01/25 12:14:07;;;;;;;20.42;8.98;;;-0.10;99.90;;;;;;5016196;28;20041;-65
2023/01/25 12:16:49;;;;;;;20.67;9.85;;;-0.10;99.90;;;;;;5025546;28;20073;-65
2023/01/25 12:19:28;;;;;;;19.20;7.13;;;-0.10;99.90;;;;;;5034233;28;20041;-65
2023/01/25 12:22:05;;;;;;;16.48;8.82;;;-0.20;99.90;;;;;;5034116;28;20532;-68
2023/01/25 12:24:39;;;;;;;25.45;9.93;;;-0.20;99.90;;;;;;5015501;28;20076;-65
2023/01/25 12:27:24;;;;;;;23.65;9.68;;;-0.20;99.90;;;;;;5033652;28;20059;-65
2023/01/25 12:30:03;;;;;;;15.30;7.75;;;-0.10;99.90;;;;;;5033999;28;20037;-65
2023/01/25 12:32:40;;;;;;;17.00;7.95;;;-0.20;99.90;;;;;;5015940;28;20464;-64
2023/01/25 12:35:31;;;;;;;20.40;7.75;;;-0.20;99.90;;;;;;5033845;28;20039;-65
2023/01/25 12:38:07;;;;;;;16.50;8.55;;;-0.20;99.90;;;;;;5033862;28;20041;-66
2023/01/25 12:40:45;;;;;;;21.15;9.43;;;-0.20;99.90;;;;;;5033767;28;20037;-64
2023/01/25 12:43:36;;;;;;;24.90;8.57;;;-0.20;99.90;;;;;;5033658;28;20037;-65
2023/01/25 12:46:13;;;;;;;23.92;9.55;;;-0.20;99.90;;;;;;5033698;28;20513;-65
2023/01/25 12:48:45;;;;;;;20.05;7.88;;;-0.20;99.90;;;;;;5033285;28;20512;-66
2023/01/25 12:51:12;;;;;;;20.10;8.18;;;-0.10;99.90;;;;;;5033366;28;20050;-65
2023/01/25 12:53:48;;;;;;;24.65;9.63;;;-0.10;99.90;;;;;;5015851;28;20056;-65
2023/01/25 12:56:35;;;;;;;21.80;8.90;;;-0.10;99.90;;;;;;5033582;28;20045;-66
2023/01/25 12:59:22;;;;;;;19.85;9.02;;;-0.20;99.90;;;;;;5033469;28;20037;-66
2023/01/25 13:02:00;;;;;;;29.35;10.05;;;-0.20;99.90;;;;;;5033446;28;20042;-66